x

Diamond Shoals (41025) Wave Buoy

7:50am - Thu 28th May 2015 All times are EDT. -4 hours from GMT.

  • Sig Wave height 2.3ft
  • Swell Direction
  • Peak Period 8s
  • Average Period 5s
  • Wind
    4mph, 7mph gusts
  • Sea Temp 77°f
  • Air Temp 75°f
  • Sea Pressure 1024.7mb
  • Diamond Shoals
  • Diamond Shoals

More Historic Weather Station data

Upgrade to MSW Pro to gain access to the past 30 days of data for over 8000 Wavebouys and Weather Stations around the globe.

Join Pro

Comparision Forecast

View Surf forecast
   
Thu 05/28 7:50am 2.5ft 8s 5s 4 7 mph 1024.7mb 77f 75f
6:50am 2.5ft 8s 6s 7 9 mph 1024.6mb 77f 74f
5:50am 2.5ft 7s 5s 11 13 mph 1024mb 77f 74f
4:50am 3ft 8s 5s 9 11 mph 1023.8mb 77f 73f
3:50am 3ft 7s 5s 9 11 mph 1023.9mb 77f 74f
2:50am 3ft 7s 5s 9 11 mph 1024mb 77f 74f
1:50am 3ft 7s 5s 11 13 mph 1024.1mb 77f 74f
12:50am 2.5ft 8s 5s 9 11 mph 1024.5mb 77f 74f
Wed 05/27 11:50pm 3ft 7s 5s 9 11 mph 1024.9mb 77f 74f
10:50pm 3.5ft 7s 5s 13 16 mph 1025mb 77f 74f
9:50pm 3ft 7s 5s 16 20 mph 1024.7mb 77f 74f
8:50pm 3ft 7s 4s 18 20 mph 1024.1mb 77f 74f
7:50pm 3ft 7s 4s 18 22 mph 1023.7mb 77f 74f
6:50pm 3ft 7s 4s 18 22 mph 1023.7mb 77f 75f
5:50pm 3ft 8s 4s 18 20 mph 1024mb 77f 75f
4:50pm 2.5ft 7s 5s 18 20 mph 1024.6mb 77f 75f
3:50pm 2.5ft 6s 5s 16 20 mph 1025.2mb 77f 75f
2:50pm 2.5ft 8s 5s 13 18 mph 1025.9mb 77f 74f
1:50pm 2.5ft 7s 5s 13 16 mph 1026.2mb 77f 74f
12:50pm 2.5ft 7s 5s 13
mph
1026.6mb 77f 75f
11:50am 2.5ft 6s 5s 11 13 mph 1026.5mb 77f 75f
10:50am 2.5ft 7s 5s 11 13 mph 1026.1mb 77f 75f
9:50am 2.5ft 5s 5s 11 16 mph 1025.8mb 76f 75f
8:50am 2.5ft 5s 4s 11 13 mph 1025.9mb 76f 75f
7:50am 3ft 5s 4s 11 16 mph 1025.8mb 76f 75f
6:50am 3ft 7s 4s 9 13 mph 1025.6mb 76f 75f
5:50am 3ft 4s 4s 11 13 mph 1025.1mb 78f 74f
4:50am 2.5ft 5s 4s 13 18 mph 1024.9mb 78f 74f
3:50am 3ft 5s 4s 13 18 mph 1024.9mb 78f 74f
2:50am 3ft 5s 4s 16 20 mph 1025.2mb 78f 75f
1:50am 3ft 6s 4s 18 22 mph 1025.2mb 77f 75f
12:50am 3.5ft 5s 4s 18 22 mph 1025.7mb 76f 74f
Tue 05/26 11:50pm 3.5ft 5s 4s 18 22 mph 1026.1mb 76f 74f
10:50pm 3.5ft 5s 4s 20 25 mph 1025.8mb 76f 74f
9:50pm 3ft 5s 4s 18 22 mph 1025.9mb 76f 74f
8:50pm 3ft 6s 4s 20 25 mph 1025mb 77f 74f
7:50pm 2.5ft 6s 4s 18 22 mph 1025mb 77f 75f
6:50pm 2.5ft 6s 4s 20 22 mph 1025mb 77f 75f
5:50pm 3ft 7s 4s 18 20 mph 1025.6mb 77f 75f
4:50pm 2.5ft 7s 4s 18 20 mph 1026mb 77f 75f
3:50pm 3ft 5s 4s 18 20 mph 1026.2mb 77f 75f
2:50pm 3ft 6s 4s 16 20 mph 1026.7mb 77f 75f
1:50pm 3ft 6s 4s 16 18 mph 1027.3mb 77f 75f
12:50pm 3ft 5s 4s 16 18 mph 1027.6mb 77f 75f
11:50am 3.5ft 5s 4s 16
mph
1027.8mb 77f 75f
10:50am 3.5ft 5s 4s 16 20 mph 1027.7mb 77f 75f
9:50am 3ft 5s 4s 16 18 mph 1027.5mb 77f 75f
8:50am 3ft 5s 4s 16 18 mph 1027.4mb 77f 75f
7:50am 3ft 5s 4s 18 20 mph 1027mb 77f 75f
6:50am 3ft 4s 4s 18 20 mph 1026.6mb 77f 75f
5:50am 2.5ft 5s 4s 18 20 mph 1026.1mb 77f 75f
4:50am 3ft 6s 4s 16 20 mph 1025.7mb 77f 75f
3:50am 2.5ft 5s 4s 18 20 mph 1025.6mb 77f 75f
2:50am 2.5ft 5s 4s 18 22 mph 1025.6mb 76f 75f
1:50am 2.5ft 4s 4s 18 20 mph 1025.8mb 76f 74f
12:50am 2.5ft 6s 4s 16 18 mph 1026.6mb 76f 74f
Mon 05/25 11:50pm 2.5ft 6s 4s 16 18 mph 1027mb 76f 74f
10:50pm 2.5ft 6s 4s 16 20 mph 1027.2mb 76f 74f
9:50pm 2.5ft 7s 4s 16 18 mph 1027mb 76f 74f
8:50pm 2.5ft 7s 4s 13 18 mph 1026.7mb 77f 74f
7:50pm 2ft 7s 4s 16 20 mph 1026.8mb 77f 75f
6:50pm 2ft 8s 4s 13 18 mph 1026.7mb 77f 75f
5:50pm 2ft 7s 4s 11 16 mph 1026.7mb 77f 75f
4:50pm 2ft 8s 5s 11 16 mph 1026.8mb 78f 74f
3:50pm 2ft 8s 5s 13 16 mph 1027.1mb 78f 74f
2:50pm 1.6ft 8s 5s 11 16 mph 1027.6mb 78f 74f
1:50pm 1.6ft 8s 5s 9 13 mph 1028.3mb 78f 74f
12:50pm 1.6ft 8s 5s 9 11 mph 1028.5mb 78f 74f
11:50am 1.6ft 6s 5s 9 11 mph 1028.6mb 78f 73f
10:50am 2ft 7s 5s 7 9 mph 1028.9mb 77f 73f
9:50am 2ft 7s 5s 9 11 mph 1028.7mb 77f 73f
8:50am 2ft 8s 5s 7 9 mph 1028.6mb 77f 73f
7:50am 1.6ft 8s 5s 7 11 mph 1028.4mb 77f 73f
6:50am 2ft 8s 5s 9 11 mph 1028mb 77f 73f
5:50am 2ft 8s 5s 7 9 mph 1027.7mb 77f 72f
4:50am 2ft 7s 5s 7 9 mph 1027.6mb 77f 73f
3:50am 2ft 6s 5s 9 11 mph 1027.3mb 77f 73f
2:50am 2ft 8s 5s 9 11 mph 1027mb 77f 74f
1:50am 2.5ft 8s 5s 9 11 mph 1027.1mb 77f 74f
12:50am 2ft 7s 5s 9 11 mph 1027.7mb 77f 74f
Sun 05/24 11:50pm 2ft 8s 5s 7 9 mph 1028mb 77f 74f
10:50pm 2ft 6s 5s 7 11 mph 1028.2mb 77f 74f
9:50pm 2ft 7s 5s 7 9 mph 1028.1mb 78f 74f
8:50pm 2ft 7s 5s 7 11 mph 1027.9mb 78f 74f
7:50pm 2ft 6s 5s 7 9 mph 1027.9mb 78f 74f
6:50pm 2ft 8s 5s 7
mph
1027.7mb 78f 74f
5:50pm 2ft 7s 5s 7 9 mph 1028.3mb 78f 73f
4:50pm 2.5ft 8s 5s 9 11 mph 1028.7mb 78f 73f
3:50pm 2ft 8s 5s 7 9 mph 1028.9mb 78f 73f
2:50pm 2.5ft 7s 5s 7 9 mph 1029.2mb 79f 74f
1:50pm 2.5ft 7s 5s 4 7 mph 1029.6mb 78f 73f
12:50pm 2.5ft 7s 5s 4 9 mph 1030mb 78f 73f